Time,TemperatureF,DewpointF,PressureIn,WindDirection,WindDirectionDegrees,WindSpeedMPH,WindSpeedGustMPH,Humidity,HourlyPrecipIn,Conditions,Clouds,dailyrainin,SoftwareType,DateUTC
2013-10-25 00:00:00,42.6,34.6,30.14,East,90,0.0,0.0,73,0.00,,CLR,0.00,VWS V12.08,2013-10-25 04:00:00,
2013-10-25 00:01:00,42.6,34.6,30.14,East,90,0.0,0.0,73,0.00,,CLR,0.00,VWS V12.08,2013-10-25 04:01:00,
2013-10-25 00:02:00,42.4,34.4,30.15,East,90,0.0,0.0,73,0.00,,CLR,0.00,VWS V12.08,2013-10-25 04:02:00,
2013-10-25 00:03:00,42.4,34.4,30.14,East,90,0.0,0.0,73,0.00,,CLR,0.00,VWS V12.08,2013-10-25 04:03:00,
2013-10-25 00:08:00,42.4,34.4,30.14,East,90,0.0,0.0,73,0.00,,CLR,0.00,VWS V12.08,2013-10-25 04:08:00,
2013-10-25 00:09:00,42.4,34.4,30.14,East,90,0.0,0.0,73,0.00,,CLR,0.00,VWS V12.08,2013-10-25 04:09:00,
2013-10-25 00:14:00,42.3,34.2,30.14,East,90,0.0,0.0,73,0.00,,CLR,0.00,VWS V12.08,2013-10-25 04:14:00,
2013-10-25 00:19:00,42.3,34.2,30.14,East,90,0.0,0.0,73,0.00,,CLR,0.00,VWS V12.08,2013-10-25 04:19:00,
2013-10-25 00:24:00,42.1,34.1,30.15,ENE,68,0.0,0.0,73,0.00,,CLR,0.00,VWS V12.08,2013-10-25 04:24:00,
2013-10-25 00:29:00,41.9,33.9,30.15,East,90,0.0,0.0,73,0.00,,CLR,0.00,VWS V12.08,2013-10-25 04:29:00,
2013-10-25 00:34:00,41.9,33.9,30.15,East,90,0.0,0.0,73,0.00,,CLR,0.00,VWS V12.08,2013-10-25 04:34:00,
2013-10-25 00:39:00,41.9,33.9,30.15,East,90,0.0,0.0,73,0.00,,CLR,0.00,VWS V12.08,2013-10-25 04:39:00,
2013-10-25 00:44:00,41.7,33.7,30.15,East,90,0.0,0.0,73,0.00,,CLR,0.00,VWS V12.08,2013-10-25 04:44:00,
2013-10-25 00:49:00,41.4,33.7,30.16,ENE,68,0.0,0.0,74,0.00,,CLR,0.00,VWS V12.08,2013-10-25 04:49:00,
2013-10-25 00:55:00,40.8,33.2,30.16,NW,315,0.0,0.0,74,0.00,,CLR,0.00,VWS V12.08,2013-10-25 04:55:00,
2013-10-25 01:00:00,40.8,33.5,30.16,WNW,292,0.0,0.0,75,0.00,,CLR,0.00,VWS V12.08,2013-10-25 05:00:00,
2013-10-25 01:05:00,40.8,33.2,30.16,NW,315,0.0,0.0,74,0.00,,CLR,0.00,VWS V12.08,2013-10-25 05:05:00,
2013-10-25 01:10:00,40.8,33.5,30.16,NW,315,0.0,0.0,75,0.00,,CLR,0.00,VWS V12.08,2013-10-25 05:10:00,
2013-10-25 01:15:00,40.8,33.5,30.16,NW,315,0.0,0.0,75,0.00,,CLR,0.00,VWS V12.08,2013-10-25 05:15:00,
2013-10-25 01:20:00,40.8,33.5,30.16,NW,315,0.0,0.0,75,0.00,,CLR,0.00,VWS V12.08,2013-10-25 05:20:00,
2013-10-25 01:25:00,40.8,33.5,30.16,NW,315,0.0,0.0,75,0.00,,CLR,0.00,VWS V12.08,2013-10-25 05:25:00,
2013-10-25 01:30:00,40.8,33.5,30.16,NW,315,0.0,0.0,75,0.00,,CLR,0.00,VWS V12.08,2013-10-25 05:30:00,
2013-10-25 01:35:00,40.8,33.5,30.16,NW,315,0.0,0.0,75,0.00,,CLR,0.00,VWS V12.08,2013-10-25 05:35:00,
2013-10-25 01:40:00,40.8,33.5,30.16,North,0,0.0,0.0,75,0.00,,CLR,0.00,VWS V12.08,2013-10-25 05:40:00,
2013-10-25 01:45:00,40.8,33.5,30.16,North,0,0.0,0.0,75,0.00,,CLR,0.00,VWS V12.08,2013-10-25 05:45:00,
2013-10-25 01:50:00,40.8,33.5,30.16,North,0,0.0,0.0,75,0.00,,CLR,0.00,VWS V12.08,2013-10-25 05:50:00,
2013-10-25 01:55:00,40.8,33.5,30.17,North,0,0.0,0.0,75,0.00,,CLR,0.00,VWS V12.08,2013-10-25 05:55:00,
2013-10-25 02:00:00,40.6,33.3,30.17,North,0,0.0,0.0,75,0.00,,CLR,0.00,VWS V12.08,2013-10-25 06:00:00,
2013-10-25 02:05:00,40.6,33.3,30.17,North,0,0.0,0.0,75,0.00,,CLR,0.00,VWS V12.08,2013-10-25 06:05:00,
2013-10-25 02:10:00,40.5,33.2,30.17,NE,45,0.0,0.0,75,0.00,,CLR,0.00,VWS V12.08,2013-10-25 06:10:00,
2013-10-25 02:15:00,40.3,33.0,30.17,NE,45,0.0,0.0,75,0.00,,CLR,0.00,VWS V12.08,2013-10-25 06:15:00,
2013-10-25 02:20:00,40.1,32.8,30.17,NNE,22,0.0,0.0,75,0.00,,CLR,0.00,VWS V12.08,2013-10-25 06:20:00,
2013-10-25 02:25:00,39.9,32.7,30.17,NNE,22,0.0,0.0,75,0.00,,CLR,0.00,VWS V12.08,2013-10-25 06:25:00,
2013-10-25 02:30:00,39.9,33.0,30.17,NNE,22,0.0,0.0,76,0.00,,CLR,0.00,VWS V12.08,2013-10-25 06:30:00,
2013-10-25 02:35:00,39.7,32.8,30.17,NE,45,0.0,0.0,76,0.00,,CLR,0.00,VWS V12.08,2013-10-25 06:35:00,
2013-10-25 02:40:00,39.7,32.8,30.17,NE,45,0.0,0.0,76,0.00,,CLR,0.00,VWS V12.08,2013-10-25 06:40:00,
2013-10-25 02:45:00,39.7,32.8,30.17,NE,45,0.0,0.0,76,0.00,,CLR,0.00,VWS V12.08,2013-10-25 06:45:00,
2013-10-25 02:50:00,39.7,32.8,30.17,NE,45,0.0,0.0,76,0.00,,CLR,0.00,VWS V12.08,2013-10-25 06:50:00,
2013-10-25 02:55:00,39.7,32.5,30.17,East,90,0.0,0.0,75,0.00,,CLR,0.00,VWS V12.08,2013-10-25 06:55:00,
2013-10-25 03:00:00,39.7,32.5,30.17,East,90,0.0,0.0,75,0.00,,CLR,0.00,VWS V12.08,2013-10-25 07:00:00,
2013-10-25 03:05:00,39.9,32.7,30.18,East,90,0.0,0.0,75,0.00,,CLR,0.00,VWS V12.08,2013-10-25 07:05:00,
2013-10-25 03:10:00,39.9,32.7,30.18,East,90,0.0,0.0,75,0.00,,CLR,0.00,VWS V12.08,2013-10-25 07:10:00,
2013-10-25 03:15:00,39.9,32.7,30.18,East,90,0.0,0.0,75,0.00,,CLR,0.00,VWS V12.08,2013-10-25 07:15:00,
2013-10-25 03:20:00,39.9,32.7,30.18,East,90,0.0,0.0,75,0.00,,CLR,0.00,VWS V12.08,2013-10-25 07:20:00,
2013-10-25 03:25:00,39.7,32.5,30.18,East,90,0.0,0.0,75,0.00,,CLR,0.00,VWS V12.08,2013-10-25 07:25:00,
2013-10-25 03:30:00,39.7,32.5,30.18,East,90,0.0,0.0,75,0.00,,CLR,0.00,VWS V12.08,2013-10-25 07:30:00,
2013-10-25 03:35:00,39.6,32.3,30.18,East,90,0.0,0.0,75,0.00,,CLR,0.00,VWS V12.08,2013-10-25 07:35:00,
2013-10-25 03:40:00,39.4,32.1,30.18,East,90,0.0,0.0,75,0.00,,CLR,0.00,VWS V12.08,2013-10-25 07:40:00,
2013-10-25 03:45:00,39.0,32.1,30.19,East,90,0.0,0.0,76,0.00,,CLR,0.00,VWS V12.08,2013-10-25 07:45:00,
2013-10-25 03:50:00,39.0,32.1,30.19,East,90,0.0,0.0,76,0.00,,CLR,0.00,VWS V12.08,2013-10-25 07:50:00,
2013-10-25 03:55:00,39.0,32.1,30.18,East,90,0.0,0.0,76,0.00,,CLR,0.00,VWS V12.08,2013-10-25 07:55:00,
2013-10-25 04:00:00,39.0,32.1,30.19,East,90,0.0,0.0,76,0.00,,CLR,0.00,VWS V12.08,2013-10-25 08:00:00,
2013-10-25 04:05:00,38.8,31.9,30.19,East,90,0.0,0.0,76,0.00,,CLR,0.00,VWS V12.08,2013-10-25 08:05:00,
2013-10-25 04:10:00,38.8,31.9,30.19,East,90,0.0,0.0,76,0.00,,CLR,0.00,VWS V12.08,2013-10-25 08:10:00,
2013-10-25 04:15:00,38.5,31.6,30.19,East,90,0.0,0.0,76,0.00,,CLR,0.00,VWS V12.08,2013-10-25 08:15:00,
2013-10-25 04:20:00,38.3,31.4,30.19,East,90,0.0,0.0,76,0.00,,CLR,0.00,VWS V12.08,2013-10-25 08:20:00,
2013-10-25 04:25:00,38.3,31.4,30.19,East,90,0.0,0.0,76,0.00,,CLR,0.00,VWS V12.08,2013-10-25 08:25:00,
2013-10-25 04:30:00,38.3,31.4,30.19,East,90,0.0,0.0,76,0.00,,CLR,0.00,VWS V12.08,2013-10-25 08:30:00,
2013-10-25 04:35:00,38.3,31.7,30.19,East,90,0.0,0.0,77,0.00,,CLR,0.00,VWS V12.08,2013-10-25 08:35:00,
2013-10-25 04:40:00,37.2,30.7,30.19,East,90,0.0,0.0,77,0.00,,CLR,0.00,VWS V12.08,2013-10-25 08:40:00,
2013-10-25 04:45:00,37.2,30.7,30.19,East,90,0.0,0.0,77,0.00,,CLR,0.00,VWS V12.08,2013-10-25 08:45:00,
2013-10-25 04:50:00,37.2,30.7,30.19,East,90,0.0,0.0,77,0.00,,CLR,0.00,VWS V12.08,2013-10-25 08:50:00,
2013-10-25 04:55:00,36.7,30.2,30.20,East,90,0.0,0.0,77,0.00,,CLR,0.00,VWS V12.08,2013-10-25 08:55:00,
2013-10-25 05:00:00,36.7,30.2,30.20,East,90,0.0,0.0,77,0.00,,CLR,0.00,VWS V12.08,2013-10-25 09:00:00,
2013-10-25 05:05:00,36.7,30.5,30.20,ESE,112,0.0,0.0,78,0.00,,CLR,0.00,VWS V12.08,2013-10-25 09:05:00,
2013-10-25 05:10:00,36.7,30.5,30.20,East,90,0.0,0.0,78,0.00,,CLR,0.00,VWS V12.08,2013-10-25 09:10:00,
2013-10-25 05:15:00,36.3,30.1,30.20,East,90,0.0,0.0,78,0.00,,CLR,0.00,VWS V12.08,2013-10-25 09:15:00,
2013-10-25 05:20:00,36.3,30.1,30.20,East,90,0.0,0.0,78,0.00,,CLR,0.00,VWS V12.08,2013-10-25 09:20:00,
2013-10-25 05:25:00,35.8,29.3,30.21,East,90,0.0,0.0,77,0.00,,CLR,0.00,VWS V12.08,2013-10-25 09:25:00,
2013-10-25 05:30:00,35.8,29.3,30.21,East,90,0.0,0.0,77,0.00,,CLR,0.00,VWS V12.08,2013-10-25 09:30:00,
2013-10-25 05:35:00,35.8,29.3,30.21,East,90,0.0,0.0,77,0.00,,CLR,0.00,VWS V12.08,2013-10-25 09:35:00,
2013-10-25 05:40:00,35.2,29.1,30.21,ESE,112,0.0,0.0,78,0.00,,CLR,0.00,VWS V12.08,2013-10-25 09:40:00,
2013-10-25 05:45:00,35.2,29.1,30.22,ESE,112,0.0,0.0,78,0.00,,CLR,0.00,VWS V12.08,2013-10-25 09:45:00,
2013-10-25 05:50:00,35.2,29.4,30.22,ESE,112,0.0,0.0,79,0.00,,CLR,0.00,VWS V12.08,2013-10-25 09:50:00,
2013-10-25 05:55:00,35.2,29.4,30.22,ESE,112,0.0,0.0,79,0.00,,CLR,0.00,VWS V12.08,2013-10-25 09:55:00,
2013-10-25 06:00:00,35.2,29.4,30.22,ESE,112,0.0,0.0,79,0.00,,CLR,0.00,VWS V12.08,2013-10-25 10:00:00,
2013-10-25 06:05:00,35.2,29.4,30.22,ESE,112,0.0,0.0,79,0.00,,CLR,0.00,VWS V12.08,2013-10-25 10:05:00,
2013-10-25 06:10:00,35.2,29.4,30.22,ESE,112,0.0,0.0,79,0.00,,CLR,0.00,VWS V12.08,2013-10-25 10:10:00,
2013-10-25 06:15:00,35.2,29.4,30.23,ESE,112,0.0,0.0,79,0.00,,CLR,0.00,VWS V12.08,2013-10-25 10:15:00,
2013-10-25 06:20:00,35.2,29.4,30.23,ESE,112,0.0,0.0,79,0.00,,CLR,0.00,VWS V12.08,2013-10-25 10:20:00,
2013-10-25 06:25:00,35.2,29.4,30.23,ESE,112,0.0,0.0,79,0.00,,CLR,0.00,VWS V12.08,2013-10-25 10:25:00,
2013-10-25 06:30:00,35.2,29.4,30.23,ESE,112,0.0,0.0,79,0.00,,CLR,0.00,VWS V12.08,2013-10-25 10:30:00,
2013-10-25 06:35:00,35.1,29.2,30.24,ESE,112,0.0,0.0,79,0.00,,CLR,0.00,VWS V12.08,2013-10-25 10:35:00,
2013-10-25 06:40:00,35.1,29.2,30.24,ESE,112,0.0,0.0,79,0.00,,CLR,0.00,VWS V12.08,2013-10-25 10:40:00,
2013-10-25 06:45:00,34.9,29.0,30.24,ESE,112,0.0,0.0,79,0.00,,CLR,0.00,VWS V12.08,2013-10-25 10:45:00,
2013-10-25 06:50:00,34.9,29.0,30.24,ESE,112,0.0,0.0,79,0.00,,CLR,0.00,VWS V12.08,2013-10-25 10:50:00,
2013-10-25 06:55:00,34.7,28.9,30.24,ESE,112,0.0,0.0,79,0.00,,CLR,0.00,VWS V12.08,2013-10-25 10:55:00,
2013-10-25 07:00:00,34.7,28.9,30.24,ESE,112,0.0,0.0,79,0.00,,CLR,0.00,VWS V12.08,2013-10-25 11:00:00,
2013-10-25 07:05:00,34.3,28.5,30.25,ESE,112,0.0,0.0,79,0.00,,CLR,0.00,VWS V12.08,2013-10-25 11:05:00,
2013-10-25 07:10:00,34.3,28.5,30.25,ESE,112,0.0,0.0,79,0.00,,CLR,0.00,VWS V12.08,2013-10-25 11:10:00,
2013-10-25 07:15:00,34.3,28.5,30.25,ESE,112,0.0,0.0,79,0.00,,CLR,0.00,VWS V12.08,2013-10-25 11:15:00,
2013-10-25 07:20:00,34.3,28.5,30.26,ESE,112,0.0,0.0,79,0.00,,CLR,0.00,VWS V12.08,2013-10-25 11:20:00,
2013-10-25 07:25:00,33.6,27.8,30.26,East,90,0.0,0.0,79,0.00,,CLR,0.00,VWS V12.08,2013-10-25 11:25:00,
2013-10-25 07:30:00,33.4,27.6,30.26,East,90,0.0,0.0,79,0.00,,CLR,0.00,VWS V12.08,2013-10-25 11:30:00,
2013-10-25 07:35:00,33.3,27.5,30.27,East,90,0.0,0.0,79,0.00,,CLR,0.00,VWS V12.08,2013-10-25 11:35:00,
2013-10-25 07:40:00,33.4,27.6,30.27,ESE,112,0.0,0.0,79,0.00,,CLR,0.00,VWS V12.08,2013-10-25 11:40:00,
2013-10-25 07:45:00,33.4,27.6,30.27,East,90,0.0,0.0,79,0.00,,CLR,0.00,VWS V12.08,2013-10-25 11:45:00,
2013-10-25 07:50:00,33.4,27.6,30.27,East,90,0.0,0.0,79,0.00,,CLR,0.00,VWS V12.08,2013-10-25 11:50:00,
2013-10-25 07:55:00,33.6,27.8,30.27,ESE,112,0.0,0.0,79,0.00,,CLR,0.00,VWS V12.08,2013-10-25 11:55:00,
2013-10-25 08:00:00,33.6,28.1,30.28,ESE,112,0.0,0.0,80,0.00,,CLR,0.00,VWS V12.08,2013-10-25 12:00:00,
2013-10-25 08:05:00,33.6,28.1,30.28,East,90,0.0,0.0,80,0.00,,CLR,0.00,VWS V12.08,2013-10-25 12:05:00,
2013-10-25 08:10:00,33.6,28.1,30.28,ESE,112,0.0,0.0,80,0.00,,CLR,0.00,VWS V12.08,2013-10-25 12:10:00,
2013-10-25 08:15:00,33.6,28.1,30.29,East,90,0.0,0.0,80,0.00,,CLR,0.00,VWS V12.08,2013-10-25 12:15:00,
2013-10-25 08:20:00,34.0,28.5,30.29,ESE,112,0.0,0.0,80,0.00,,CLR,0.00,VWS V12.08,2013-10-25 12:20:00,
2013-10-25 08:25:00,34.0,28.5,30.29,ESE,112,0.0,0.0,80,0.00,,CLR,0.00,VWS V12.08,2013-10-25 12:25:00,
2013-10-25 08:30:00,34.2,28.6,30.30,ESE,112,0.0,0.0,80,0.00,,CLR,0.00,VWS V12.08,2013-10-25 12:30:00,
2013-10-25 08:35:00,34.3,28.8,30.30,ESE,112,0.0,0.0,80,0.00,,CLR,0.00,VWS V12.08,2013-10-25 12:35:00,
2013-10-25 08:40:00,34.3,28.8,30.30,ESE,112,0.0,0.0,80,0.00,,CLR,0.00,VWS V12.08,2013-10-25 12:40:00,
2013-10-25 08:45:00,34.5,29.0,30.30,ESE,112,0.0,0.0,80,0.00,,CLR,0.00,VWS V12.08,2013-10-25 12:45:00,
2013-10-25 08:50:00,34.9,29.4,30.31,ESE,112,0.0,0.0,80,0.00,,CLR,0.00,VWS V12.08,2013-10-25 12:50:00,
2013-10-25 08:55:00,34.9,29.0,30.31,ESE,112,0.0,0.0,79,0.00,,CLR,0.00,VWS V12.08,2013-10-25 12:55:00,
2013-10-25 09:00:00,34.9,29.0,30.31,ESE,112,0.0,0.0,79,0.00,,CLR,0.00,VWS V12.08,2013-10-25 13:00:00,
2013-10-25 09:05:00,35.4,29.2,30.32,ESE,112,0.0,0.0,78,0.00,,CLR,0.00,VWS V12.08,2013-10-25 13:05:00,
2013-10-25 09:10:00,35.4,29.2,30.32,ESE,112,0.0,0.0,78,0.00,,CLR,0.00,VWS V12.08,2013-10-25 13:10:00,
2013-10-25 09:15:00,35.8,29.0,30.32,East,90,0.0,0.0,76,0.00,,CLR,0.00,VWS V12.08,2013-10-25 13:15:00,
2013-10-25 09:20:00,36.0,29.1,30.32,East,90,0.0,0.0,76,0.00,,CLR,0.00,VWS V12.08,2013-10-25 13:20:00,
2013-10-25 09:25:00,36.3,29.2,30.32,East,90,0.0,0.0,75,0.00,,CLR,0.00,VWS V12.08,2013-10-25 13:25:00,
2013-10-25 09:30:00,36.3,29.2,30.32,East,90,0.0,0.0,75,0.00,,CLR,0.00,VWS V12.08,2013-10-25 13:30:00,
2013-10-25 09:35:00,37.2,29.0,30.33,WNW,292,0.0,0.0,72,0.00,,CLR,0.00,VWS V12.08,2013-10-25 13:35:00,
2013-10-25 09:40:00,37.2,29.0,30.33,WNW,292,0.0,0.0,72,0.00,,CLR,0.00,VWS V12.08,2013-10-25 13:40:00,
2013-10-25 09:45:00,37.9,29.0,30.32,WNW,292,0.0,0.0,70,0.00,,CLR,0.00,VWS V12.08,2013-10-25 13:45:00,
2013-10-25 09:50:00,38.3,28.3,30.32,WNW,292,0.0,0.0,67,0.00,,CLR,0.00,VWS V12.08,2013-10-25 13:50:00,
2013-10-25 09:55:00,38.5,28.5,30.32,WNW,292,0.0,0.0,67,0.00,,CLR,0.00,VWS V12.08,2013-10-25 13:55:00,
2013-10-25 10:00:00,38.8,28.1,30.33,NW,315,2.2,2.2,65,0.00,,CLR,0.00,VWS V12.08,2013-10-25 14:00:00,
2013-10-25 10:05:00,38.8,28.1,30.33,NW,315,2.2,2.2,65,0.00,,CLR,0.00,VWS V12.08,2013-10-25 14:05:00,
2013-10-25 10:10:00,39.7,28.6,30.33,WSW,248,0.0,5.4,64,0.00,,CLR,0.00,VWS V12.08,2013-10-25 14:10:00,
2013-10-25 10:15:00,39.9,28.8,30.33,NNW,338,0.0,5.4,64,0.00,,CLR,0.00,VWS V12.08,2013-10-25 14:15:00,
2013-10-25 10:20:00,40.3,28.7,30.33,East,90,0.0,0.0,63,0.00,,CLR,0.00,VWS V12.08,2013-10-25 14:20:00,
2013-10-25 10:25:00,40.6,28.6,30.33,WNW,292,0.0,6.9,62,0.00,,CLR,0.00,VWS V12.08,2013-10-25 14:25:00,
2013-10-25 10:30:00,40.6,28.3,30.33,NW,315,0.0,6.9,61,0.00,,CLR,0.00,VWS V12.08,2013-10-25 14:30:00,
2013-10-25 10:35:00,40.8,28.0,30.33,NW,315,0.0,7.8,60,0.00,,CLR,0.00,VWS V12.08,2013-10-25 14:35:00,
2013-10-25 10:40:00,41.0,27.8,30.33,NNW,338,0.0,7.8,59,0.00,,CLR,0.00,VWS V12.08,2013-10-25 14:40:00,
2013-10-25 10:45:00,41.4,28.1,30.33,North,0,0.0,2.5,59,0.00,,CLR,0.00,VWS V12.08,2013-10-25 14:45:00,
2013-10-25 10:50:00,41.5,27.5,30.33,NW,315,0.0,6.9,57,0.00,,CLR,0.00,VWS V12.08,2013-10-25 14:50:00,
2013-10-25 10:55:00,41.9,27.8,30.33,WNW,292,2.9,7.2,57,0.00,,CLR,0.00,VWS V12.08,2013-10-25 14:55:00,
2013-10-25 11:00:00,42.1,28.0,30.33,NW,315,0.0,0.0,57,0.00,,CLR,0.00,VWS V12.08,2013-10-25 15:00:00,
2013-10-25 11:05:00,42.4,28.7,30.33,North,0,0.0,7.8,58,0.00,,CLR,0.00,VWS V12.08,2013-10-25 15:05:00,
2013-10-25 11:10:00,42.6,28.5,30.33,WNW,292,0.0,7.8,57,0.00,,CLR,0.00,VWS V12.08,2013-10-25 15:10:00,
2013-10-25 11:15:00,43.0,28.4,30.33,West,270,2.2,7.8,56,0.00,,CLR,0.00,VWS V12.08,2013-10-25 15:15:00,
2013-10-25 11:20:00,43.2,28.5,30.33,NW,315,0.0,0.0,56,0.00,,CLR,0.00,VWS V12.08,2013-10-25 15:20:00,
2013-10-25 11:25:00,43.5,28.9,30.33,NW,315,0.7,8.1,56,0.00,,CLR,0.00,VWS V12.08,2013-10-25 15:25:00,
2013-10-25 11:30:00,43.7,29.0,30.33,NE,45,1.1,8.1,56,0.00,,CLR,0.00,VWS V12.08,2013-10-25 15:30:00,
2013-10-25 11:35:00,44.2,29.5,30.33,ENE,68,0.9,8.1,56,0.00,,CLR,0.00,VWS V12.08,2013-10-25 15:35:00,
2013-10-25 11:40:00,44.8,29.6,30.33,NW,315,5.8,5.8,55,0.00,,CLR,0.00,VWS V12.08,2013-10-25 15:40:00,
2013-10-25 11:45:00,45.0,29.3,30.33,West,270,0.0,9.0,54,0.00,,CLR,0.00,VWS V12.08,2013-10-25 15:45:00,
2013-10-25 11:50:00,45.1,29.5,30.33,NW,315,2.2,9.0,54,0.00,,CLR,0.00,VWS V12.08,2013-10-25 15:50:00,
2013-10-25 11:55:00,45.3,29.7,30.33,ENE,68,0.0,9.0,54,0.00,,CLR,0.00,VWS V12.08,2013-10-25 15:55:00,
2013-10-25 12:00:00,45.7,29.5,30.33,ESE,112,0.0,5.6,53,0.00,,CLR,0.00,VWS V12.08,2013-10-25 16:00:00,
2013-10-25 12:05:00,46.0,29.9,30.33,West,270,0.0,5.6,53,0.00,,CLR,0.00,VWS V12.08,2013-10-25 16:05:00,
2013-10-25 12:10:00,46.0,29.4,30.33,NNW,338,8.7,8.7,52,0.00,,CLR,0.00,VWS V12.08,2013-10-25 16:10:00,
2013-10-25 12:15:00,46.6,29.9,30.33,NW,315,3.4,8.7,52,0.00,,CLR,0.00,VWS V12.08,2013-10-25 16:15:00,
2013-10-25 12:20:00,46.9,29.8,30.33,North,0,0.0,0.0,51,0.00,,CLR,0.00,VWS V12.08,2013-10-25 16:20:00,
2013-10-25 12:25:00,47.3,29.6,30.33,NW,315,0.0,2.7,50,0.00,,CLR,0.00,VWS V12.08,2013-10-25 16:25:00,
2013-10-25 12:30:00,47.5,30.3,30.32,ENE,68,0.0,2.7,51,0.00,,CLR,0.00,VWS V12.08,2013-10-25 16:30:00,
2013-10-25 12:35:00,47.8,30.1,30.33,ENE,68,0.0,9.0,50,0.00,,CLR,0.00,VWS V12.08,2013-10-25 16:35:00,
2013-10-25 12:40:00,48.0,30.3,30.32,ENE,68,1.8,1.8,50,0.00,,CLR,0.00,VWS V12.08,2013-10-25 16:40:00,
2013-10-25 12:45:00,48.2,30.0,30.33,NNE,22,0.7,7.4,49,0.00,,CLR,0.00,VWS V12.08,2013-10-25 16:45:00,
2013-10-25 12:50:00,48.4,29.6,30.33,WNW,292,0.9,7.4,48,0.00,,CLR,0.00,VWS V12.08,2013-10-25 16:50:00,
2013-10-25 12:55:00,48.6,29.8,30.33,North,0,0.4,8.7,48,0.00,,CLR,0.00,VWS V12.08,2013-10-25 16:55:00,
2013-10-25 13:00:00,48.7,29.9,30.32,WNW,292,0.0,1.1,48,0.00,,CLR,0.00,VWS V12.08,2013-10-25 17:00:00,
2013-10-25 13:05:00,48.7,29.4,30.32,WNW,292,2.9,5.8,47,0.00,,CLR,0.00,VWS V12.08,2013-10-25 17:05:00,
2013-10-25 13:10:00,48.9,30.1,30.32,NE,45,0.0,5.8,48,0.00,,CLR,0.00,VWS V12.08,2013-10-25 17:10:00,
2013-10-25 13:15:00,48.7,30.5,30.32,NW,315,5.1,5.8,49,0.00,,CLR,0.00,VWS V12.08,2013-10-25 17:15:00,
2013-10-25 13:20:00,48.9,29.6,30.32,NW,315,0.0,5.6,47,0.00,,CLR,0.00,VWS V12.08,2013-10-25 17:20:00,
2013-10-25 13:25:00,49.3,29.4,30.32,NNE,22,0.9,5.6,46,0.00,,CLR,0.00,VWS V12.08,2013-10-25 17:25:00,
2013-10-25 13:30:00,49.3,29.9,30.32,WNW,292,2.2,5.6,47,0.00,,CLR,0.00,VWS V12.08,2013-10-25 17:30:00,
2013-10-25 13:35:00,49.6,29.7,30.32,NNW,338,1.3,7.2,46,0.00,,CLR,0.00,VWS V12.08,2013-10-25 17:35:00,
2013-10-25 13:40:00,50.2,30.2,30.31,West,270,0.0,0.7,46,0.00,,CLR,0.00,VWS V12.08,2013-10-25 17:40:00,
2013-10-25 13:45:00,50.4,29.8,30.30,NW,315,0.0,2.9,45,0.00,,CLR,0.00,VWS V12.08,2013-10-25 17:45:00,
2013-10-25 13:50:00,50.4,29.8,30.30,NW,315,0.0,5.1,45,0.00,,CLR,0.00,VWS V12.08,2013-10-25 17:50:00,
2013-10-25 13:55:00,50.5,30.0,30.31,WNW,292,6.0,6.0,45,0.00,,CLR,0.00,VWS V12.08,2013-10-25 17:55:00,
2013-10-25 14:00:00,50.7,30.7,30.30,NNE,22,1.3,1.3,46,0.00,,CLR,0.00,VWS V12.08,2013-10-25 18:00:00,
2013-10-25 14:05:00,50.9,30.9,30.30,NW,315,3.6,11.2,46,0.00,,CLR,0.00,VWS V12.08,2013-10-25 18:05:00,
2013-10-25 14:10:00,50.7,30.2,30.30,NW,315,1.8,11.2,45,0.00,,CLR,0.00,VWS V12.08,2013-10-25 18:10:00,
2013-10-25 14:15:00,50.9,30.9,30.30,WNW,292,5.8,11.2,46,0.00,,CLR,0.00,VWS V12.08,2013-10-25 18:15:00,
2013-10-25 14:20:00,50.5,30.5,30.30,NW,315,0.7,1.1,46,0.00,,CLR,0.00,VWS V12.08,2013-10-25 18:20:00,
2013-10-25 14:25:00,50.2,30.2,30.30,NW,315,7.4,9.4,46,0.00,,CLR,0.00,VWS V12.08,2013-10-25 18:25:00,
2013-10-25 14:30:00,50.2,31.3,30.30,North,0,0.0,9.6,48,0.00,,CLR,0.00,VWS V12.08,2013-10-25 18:30:00,
2013-10-25 14:35:00,50.2,30.8,30.30,WNW,292,2.5,9.6,47,0.00,,CLR,0.00,VWS V12.08,2013-10-25 18:35:00,
2013-10-25 14:40:00,50.5,30.0,30.29,West,270,0.0,0.7,45,0.00,,CLR,0.00,VWS V12.08,2013-10-25 18:40:00,
2013-10-25 14:45:00,50.7,31.2,30.29,NW,315,0.9,3.6,47,0.00,,CLR,0.00,VWS V12.08,2013-10-25 18:45:00,
2013-10-25 14:50:00,50.7,30.7,30.29,West,270,2.5,9.0,46,0.00,,CLR,0.00,VWS V12.08,2013-10-25 18:50:00,
2013-10-25 14:55:00,50.9,31.4,30.29,NNW,338,3.6,9.0,47,0.00,,CLR,0.00,VWS V12.08,2013-10-25 18:55:00,
2013-10-25 15:00:00,51.1,31.0,30.29,North,0,0.0,0.0,46,0.00,,CLR,0.00,VWS V12.08,2013-10-25 19:00:00,
2013-10-25 15:05:00,51.3,31.2,30.29,NNE,22,0.9,5.6,46,0.00,,CLR,0.00,VWS V12.08,2013-10-25 19:05:00,
2013-10-25 15:10:00,51.3,31.2,30.29,WNW,292,1.6,5.6,46,0.00,,CLR,0.00,VWS V12.08,2013-10-25 19:10:00,
2013-10-25 15:15:00,51.3,31.7,30.29,NW,315,1.8,5.6,47,0.00,,CLR,0.00,VWS V12.08,2013-10-25 19:15:00,
2013-10-25 15:20:00,51.3,31.2,30.29,NNW,338,8.7,8.7,46,0.00,,CLR,0.00,VWS V12.08,2013-10-25 19:20:00,
2013-10-25 15:25:00,50.5,30.5,30.30,NW,315,4.0,8.7,46,0.00,,CLR,0.00,VWS V12.08,2013-10-25 19:25:00,
2013-10-25 15:30:00,50.2,30.8,30.30,NW,315,0.0,8.7,47,0.00,,CLR,0.00,VWS V12.08,2013-10-25 19:30:00,
2013-10-25 15:35:00,49.3,29.9,30.30,NW,315,0.0,8.7,47,0.00,,CLR,0.00,VWS V12.08,2013-10-25 19:35:00,
2013-10-25 15:40:00,48.9,30.1,30.30,NW,315,2.5,2.5,48,0.00,,CLR,0.00,VWS V12.08,2013-10-25 19:40:00,
2013-10-25 15:45:00,48.6,29.8,30.29,North,0,0.0,6.5,48,0.00,,CLR,0.00,VWS V12.08,2013-10-25 19:45:00,
2013-10-25 15:50:00,49.1,30.3,30.29,WNW,292,2.7,6.5,48,0.00,,CLR,0.00,VWS V12.08,2013-10-25 19:50:00,
2013-10-25 15:55:00,49.3,30.4,30.29,North,0,1.8,7.8,48,0.00,,CLR,0.00,VWS V12.08,2013-10-25 19:55:00,
2013-10-25 16:00:00,49.6,30.8,30.29,NW,315,0.0,0.0,48,0.00,,CLR,0.00,VWS V12.08,2013-10-25 20:00:00,
2013-10-25 16:05:00,49.3,29.9,30.30,WNW,292,0.0,6.5,47,0.00,,CLR,0.00,VWS V12.08,2013-10-25 20:05:00,
2013-10-25 16:10:00,49.3,30.4,30.30,NW,315,6.5,7.2,48,0.00,,CLR,0.00,VWS V12.08,2013-10-25 20:10:00,
2013-10-25 16:15:00,49.1,29.8,30.30,NNE,22,0.0,7.6,47,0.00,,CLR,0.00,VWS V12.08,2013-10-25 20:15:00,
2013-10-25 16:20:00,48.7,29.4,30.30,ENE,68,0.0,1.8,47,0.00,,CLR,0.00,VWS V12.08,2013-10-25 20:20:00,
2013-10-25 16:25:00,48.6,29.8,30.30,NW,315,3.1,5.8,48,0.00,,CLR,0.00,VWS V12.08,2013-10-25 20:25:00,
2013-10-25 16:30:00,48.7,30.5,30.30,NE,45,1.8,5.8,49,0.00,,CLR,0.00,VWS V12.08,2013-10-25 20:30:00,
2013-10-25 16:35:00,48.9,30.6,30.30,WNW,292,0.0,5.8,49,0.00,,CLR,0.00,VWS V12.08,2013-10-25 20:35:00,
2013-10-25 16:40:00,49.1,30.3,30.30,NW,315,0.0,0.0,48,0.00,,CLR,0.00,VWS V12.08,2013-10-25 20:40:00,
2013-10-25 16:45:00,48.9,30.1,30.30,WNW,292,6.5,6.5,48,0.00,,CLR,0.00,VWS V12.08,2013-10-25 20:45:00,
2013-10-25 16:50:00,48.7,29.9,30.30,WNW,292,0.0,6.5,48,0.00,,CLR,0.00,VWS V12.08,2013-10-25 20:50:00,
2013-10-25 16:55:00,48.6,29.8,30.30,WNW,292,0.9,7.6,48,0.00,,CLR,0.00,VWS V12.08,2013-10-25 20:55:00,
2013-10-25 17:00:00,48.2,29.5,30.30,WNW,292,0.0,2.2,48,0.00,,CLR,0.00,VWS V12.08,2013-10-25 21:00:00,
2013-10-25 17:05:00,48.0,29.3,30.30,WNW,292,0.0,2.2,48,0.00,,CLR,0.00,VWS V12.08,2013-10-25 21:05:00,
2013-10-25 17:10:00,47.8,29.6,30.30,WNW,292,1.6,2.7,49,0.00,,CLR,0.00,VWS V12.08,2013-10-25 21:10:00,
2013-10-25 17:15:00,47.7,29.5,30.30,West,270,1.8,3.6,49,0.00,,CLR,0.00,VWS V12.08,2013-10-25 21:15:00,
2013-10-25 17:20:00,47.3,29.1,30.29,NW,315,0.0,0.0,49,0.00,,CLR,0.00,VWS V12.08,2013-10-25 21:20:00,
2013-10-25 17:25:00,47.1,29.5,30.30,NNW,338,0.0,0.9,50,0.00,,CLR,0.00,VWS V12.08,2013-10-25 21:25:00,
2013-10-25 17:30:00,46.9,29.3,30.30,NW,315,0.0,4.9,50,0.00,,CLR,0.00,VWS V12.08,2013-10-25 21:30:00,
2013-10-25 17:35:00,46.6,29.4,30.29,NW,315,3.6,6.0,51,0.00,,CLR,0.00,VWS V12.08,2013-10-25 21:35:00,
2013-10-25 17:40:00,46.2,29.1,30.29,NNW,338,0.0,2.7,51,0.00,,CLR,0.00,VWS V12.08,2013-10-25 21:40:00,
2013-10-25 17:45:00,46.2,29.6,30.30,NW,315,0.0,9.2,52,0.00,,CLR,0.00,VWS V12.08,2013-10-25 21:45:00,
2013-10-25 17:50:00,45.9,28.8,30.30,WNW,292,0.9,9.2,51,0.00,,CLR,0.00,VWS V12.08,2013-10-25 21:50:00,
2013-10-25 17:55:00,45.5,28.4,30.30,NW,315,0.0,9.2,51,0.00,,CLR,0.00,VWS V12.08,2013-10-25 21:55:00,
2013-10-25 18:00:00,45.3,28.8,30.30,NW,315,1.1,9.2,52,0.00,,CLR,0.00,VWS V12.08,2013-10-25 22:00:00,
2013-10-25 18:05:00,45.1,29.0,30.30,WNW,292,0.0,2.0,53,0.00,,CLR,0.00,VWS V12.08,2013-10-25 22:05:00,
2013-10-25 18:10:00,45.0,28.9,30.30,NW,315,0.0,2.0,53,0.00,,CLR,0.00,VWS V12.08,2013-10-25 22:10:00,
2013-10-25 18:15:00,44.8,28.7,30.30,NW,315,0.0,2.0,53,0.00,,CLR,0.00,VWS V12.08,2013-10-25 22:15:00,
2013-10-25 18:20:00,44.6,28.5,30.30,NW,315,0.0,0.0,53,0.00,,CLR,0.00,VWS V12.08,2013-10-25 22:20:00,
2013-10-25 18:25:00,44.4,28.4,30.30,WNW,292,0.0,0.0,53,0.00,,CLR,0.00,VWS V12.08,2013-10-25 22:25:00,
2013-10-25 18:30:00,44.2,28.2,30.30,WNW,292,0.0,0.0,53,0.00,,CLR,0.00,VWS V12.08,2013-10-25 22:30:00,
2013-10-25 18:35:00,43.9,28.3,30.30,WNW,292,0.0,0.0,54,0.00,,CLR,0.00,VWS V12.08,2013-10-25 22:35:00,
2013-10-25 18:40:00,43.5,28.4,30.30,WNW,292,0.0,0.0,55,0.00,,CLR,0.00,VWS V12.08,2013-10-25 22:40:00,
2013-10-25 18:45:00,43.3,28.3,30.30,WNW,292,0.0,0.0,55,0.00,,CLR,0.00,VWS V12.08,2013-10-25 22:45:00,
2013-10-25 18:50:00,43.0,28.8,30.30,WNW,292,0.0,0.0,57,0.00,,CLR,0.00,VWS V12.08,2013-10-25 22:50:00,
2013-10-25 18:55:00,43.0,28.8,30.31,West,270,0.0,0.0,57,0.00,,CLR,0.00,VWS V12.08,2013-10-25 22:55:00,
2013-10-25 19:00:00,42.6,28.9,30.31,West,270,0.0,0.0,58,0.00,,CLR,0.00,VWS V12.08,2013-10-25 23:00:00,
2013-10-25 19:05:00,42.1,28.8,30.31,West,270,0.0,0.0,59,0.00,,CLR,0.00,VWS V12.08,2013-10-25 23:05:00,
2013-10-25 19:10:00,41.9,28.6,30.31,West,270,0.0,0.0,59,0.00,,CLR,0.00,VWS V12.08,2013-10-25 23:10:00,
2013-10-25 19:15:00,41.9,28.6,30.31,West,270,0.0,0.0,59,0.00,,CLR,0.00,VWS V12.08,2013-10-25 23:15:00,
2013-10-25 19:20:00,41.5,29.1,30.31,West,270,0.0,0.0,61,0.00,,CLR,0.00,VWS V12.08,2013-10-25 23:20:00,
2013-10-25 19:25:00,41.2,28.8,30.32,West,270,0.0,0.0,61,0.00,,CLR,0.00,VWS V12.08,2013-10-25 23:25:00,
2013-10-25 19:30:00,41.2,28.8,30.32,West,270,0.0,0.0,61,0.00,,CLR,0.00,VWS V12.08,2013-10-25 23:30:00,
2013-10-25 19:35:00,40.6,28.6,30.32,West,270,0.0,0.0,62,0.00,,CLR,0.00,VWS V12.08,2013-10-25 23:35:00,
2013-10-25 19:40:00,40.6,29.0,30.32,NW,315,0.0,0.0,63,0.00,,CLR,0.00,VWS V12.08,2013-10-25 23:40:00,
2013-10-25 19:45:00,40.1,28.5,30.32,NW,315,0.0,0.0,63,0.00,,CLR,0.00,VWS V12.08,2013-10-25 23:45:00,
2013-10-25 19:50:00,39.9,28.8,30.32,NW,315,0.0,0.0,64,0.00,,CLR,0.00,VWS V12.08,2013-10-25 23:50:00,
2013-10-25 19:55:00,39.7,28.6,30.33,NW,315,0.0,0.0,64,0.00,,CLR,0.00,VWS V12.08,2013-10-25 23:55:00,
2013-10-25 20:00:00,39.4,28.2,30.33,NW,315,0.0,0.0,64,0.00,,CLR,0.00,VWS V12.08,2013-10-26 00:00:00,
2013-10-25 20:05:00,39.4,28.6,30.33,NNE,22,0.0,0.0,65,0.00,,CLR,0.00,VWS V12.08,2013-10-26 00:05:00,
2013-10-25 20:10:00,39.0,28.3,30.33,NNE,22,0.0,0.0,65,0.00,,CLR,0.00,VWS V12.08,2013-10-26 00:10:00,
2013-10-25 20:15:00,39.0,28.3,30.33,NNE,22,0.0,0.0,65,0.00,,CLR,0.00,VWS V12.08,2013-10-26 00:15:00,
2013-10-25 20:20:00,38.7,27.9,30.33,NNE,22,0.0,0.0,65,0.00,,CLR,0.00,VWS V12.08,2013-10-26 00:20:00,
2013-10-25 20:25:00,38.5,28.1,30.33,NNE,22,0.0,0.0,66,0.00,,CLR,0.00,VWS V12.08,2013-10-26 00:25:00,
2013-10-25 20:30:00,38.5,28.1,30.33,NNE,22,0.0,0.0,66,0.00,,CLR,0.00,VWS V12.08,2013-10-26 00:30:00,
2013-10-25 20:35:00,38.5,28.1,30.33,NNE,22,0.0,0.0,66,0.00,,CLR,0.00,VWS V12.08,2013-10-26 00:35:00,
2013-10-25 20:40:00,38.1,27.8,30.33,NE,45,0.0,0.0,66,0.00,,CLR,0.00,VWS V12.08,2013-10-26 00:40:00,
2013-10-25 20:45:00,37.9,28.0,30.33,NE,45,0.0,0.0,67,0.00,,CLR,0.00,VWS V12.08,2013-10-26 00:45:00,
2013-10-25 20:50:00,37.9,28.0,30.33,NE,45,0.0,0.0,67,0.00,,CLR,0.00,VWS V12.08,2013-10-26 00:50:00,
2013-10-25 20:55:00,37.9,28.0,30.33,NE,45,0.0,0.0,67,0.00,,CLR,0.00,VWS V12.08,2013-10-26 00:55:00,
2013-10-25 21:01:00,37.8,27.8,30.33,NE,45,0.0,0.0,67,0.00,,CLR,0.00,VWS V12.08,2013-10-26 01:01:00,
2013-10-25 21:06:00,37.4,27.8,30.33,NE,45,0.0,0.0,68,0.00,,CLR,0.00,VWS V12.08,2013-10-26 01:06:00,
2013-10-25 21:11:00,37.4,27.8,30.33,NE,45,0.0,0.0,68,0.00,,CLR,0.00,VWS V12.08,2013-10-26 01:11:00,
2013-10-25 21:16:00,37.2,27.6,30.33,NE,45,0.0,0.0,68,0.00,,CLR,0.00,VWS V12.08,2013-10-26 01:16:00,
2013-10-25 21:21:00,37.2,27.6,30.33,ENE,68,0.0,0.0,68,0.00,,CLR,0.00,VWS V12.08,2013-10-26 01:21:00,
2013-10-25 21:26:00,37.0,27.5,30.33,ENE,68,0.0,0.0,68,0.00,,CLR,0.00,VWS V12.08,2013-10-26 01:26:00,
2013-10-25 21:31:00,36.7,27.1,30.33,ENE,68,0.0,0.0,68,0.00,,CLR,0.00,VWS V12.08,2013-10-26 01:31:00,
2013-10-25 21:36:00,36.5,27.3,30.33,ENE,68,0.0,0.0,69,0.00,,CLR,0.00,VWS V12.08,2013-10-26 01:36:00,
2013-10-25 21:41:00,36.3,27.1,30.33,ENE,68,0.0,0.0,69,0.00,,CLR,0.00,VWS V12.08,2013-10-26 01:41:00,
2013-10-25 21:46:00,36.3,27.5,30.33,ENE,68,0.0,0.0,70,0.00,,CLR,0.00,VWS V12.08,2013-10-26 01:46:00,
2013-10-25 21:51:00,36.3,27.5,30.33,ENE,68,0.0,0.0,70,0.00,,CLR,0.00,VWS V12.08,2013-10-26 01:51:00,
2013-10-25 21:56:00,36.3,27.5,30.33,ENE,68,0.0,0.0,70,0.00,,CLR,0.00,VWS V12.08,2013-10-26 01:56:00,
2013-10-25 22:01:00,36.3,27.5,30.33,ENE,68,0.0,0.0,70,0.00,,CLR,0.00,VWS V12.08,2013-10-26 02:01:00,
2013-10-25 22:06:00,36.3,27.5,30.34,ENE,68,0.0,0.0,70,0.00,,CLR,0.00,VWS V12.08,2013-10-26 02:06:00,
2013-10-25 22:11:00,36.1,27.3,30.34,ENE,68,0.0,0.0,70,0.00,,CLR,0.00,VWS V12.08,2013-10-26 02:11:00,
2013-10-25 22:16:00,36.0,27.1,30.34,ENE,68,0.0,0.0,70,0.00,,CLR,0.00,VWS V12.08,2013-10-26 02:16:00,
2013-10-25 22:21:00,35.8,27.3,30.34,ENE,68,0.0,0.0,71,0.00,,CLR,0.00,VWS V12.08,2013-10-26 02:21:00,
2013-10-25 22:26:00,35.8,27.3,30.34,ENE,68,0.0,0.0,71,0.00,,CLR,0.00,VWS V12.08,2013-10-26 02:26:00,
2013-10-25 22:31:00,35.8,27.3,30.35,ENE,68,0.0,0.0,71,0.00,,CLR,0.00,VWS V12.08,2013-10-26 02:31:00,
2013-10-25 22:36:00,35.4,27.0,30.35,ENE,68,0.0,0.0,71,0.00,,CLR,0.00,VWS V12.08,2013-10-26 02:36:00,
2013-10-25 22:41:00,35.4,27.0,30.35,ENE,68,0.0,0.0,71,0.00,,CLR,0.00,VWS V12.08,2013-10-26 02:41:00,
2013-10-25 22:46:00,35.4,27.0,30.34,ENE,68,0.0,0.0,71,0.00,,CLR,0.00,VWS V12.08,2013-10-26 02:46:00,
2013-10-25 22:51:00,35.2,27.1,30.35,ENE,68,0.0,0.0,72,0.00,,CLR,0.00,VWS V12.08,2013-10-26 02:51:00,
2013-10-25 22:56:00,35.2,27.1,30.35,ENE,68,0.0,0.0,72,0.00,,CLR,0.00,VWS V12.08,2013-10-26 02:56:00,
2013-10-25 23:01:00,35.2,26.8,30.35,ENE,68,0.0,0.0,71,0.00,,CLR,0.00,VWS V12.08,2013-10-26 03:01:00,
2013-10-25 23:06:00,34.9,26.5,30.35,ENE,68,0.0,0.0,71,0.00,,CLR,0.00,VWS V12.08,2013-10-26 03:06:00,
2013-10-25 23:11:00,34.9,26.5,30.35,ENE,68,0.0,0.0,71,0.00,,CLR,0.00,VWS V12.08,2013-10-26 03:11:00,
2013-10-25 23:16:00,34.9,26.5,30.35,ENE,68,0.0,0.0,71,0.00,,CLR,0.00,VWS V12.08,2013-10-26 03:16:00,
2013-10-25 23:21:00,34.3,26.3,30.34,ENE,68,0.0,0.0,72,0.00,,CLR,0.00,VWS V12.08,2013-10-26 03:21:00,
2013-10-25 23:26:00,34.0,25.9,30.34,ENE,68,0.0,0.0,72,0.00,,CLR,0.00,VWS V12.08,2013-10-26 03:26:00,
2013-10-25 23:31:00,33.8,25.7,30.34,ENE,68,0.0,0.0,72,0.00,,CLR,0.00,VWS V12.08,2013-10-26 03:31:00,
2013-10-25 23:36:00,33.6,25.9,30.34,East,90,0.0,0.0,73,0.00,,CLR,0.00,VWS V12.08,2013-10-26 03:36:00,
2013-10-25 23:41:00,33.6,25.9,30.34,East,90,0.0,0.0,73,0.00,,CLR,0.00,VWS V12.08,2013-10-26 03:41:00,
2013-10-25 23:46:00,33.6,25.9,30.34,East,90,0.0,0.0,73,0.00,,CLR,0.00,VWS V12.08,2013-10-26 03:46:00,
2013-10-25 23:51:00,33.4,26.1,30.34,East,90,0.0,0.0,74,0.00,,CLR,0.00,VWS V12.08,2013-10-26 03:51:00,
2013-10-25 23:56:00,33.4,25.7,30.34,East,90,0.0,0.0,73,0.00,,CLR,0.00,VWS V12.08,2013-10-26 03:56:00,